sensor_id;sensor_type;location;lat;lon;timestamp;pressure;altitude;pressure_sealevel;temperature
67822;BMP180;54434;50.096;20.082;2022-10-26T00:02:03;99207.00;;;9.50
67822;BMP180;54434;50.096;20.082;2022-10-26T00:04:39;99204.00;;;9.50
67822;BMP180;54434;50.096;20.082;2022-10-26T00:07:15;99208.20;;;9.50
67822;BMP180;54434;50.096;20.082;2022-10-26T00:09:51;99206.40;;;9.44
67822;BMP180;54434;50.096;20.082;2022-10-26T00:12:27;99205.20;;;9.42
67822;BMP180;54434;50.096;20.082;2022-10-26T00:15:03;99206.00;;;9.42
67822;BMP180;54434;50.096;20.082;2022-10-26T00:17:38;99205.40;;;9.40
67822;BMP180;54434;50.096;20.082;2022-10-26T00:20:15;99208.80;;;9.40
67822;BMP180;54434;50.096;20.082;2022-10-26T00:22:51;99213.60;;;9.40
67822;BMP180;54434;50.096;20.082;2022-10-26T00:25:27;99218.40;;;9.40
67822;BMP180;54434;50.096;20.082;2022-10-26T00:28:03;99219.80;;;9.34
67822;BMP180;54434;50.096;20.082;2022-10-26T00:30:40;99221.60;;;9.30
67822;BMP180;54434;50.096;20.082;2022-10-26T00:33:17;99222.20;;;9.30
67822;BMP180;54434;50.096;20.082;2022-10-26T00:35:56;99225.40;;;9.20
67822;BMP180;54434;50.096;20.082;2022-10-26T00:38:33;99220.20;;;9.20
67822;BMP180;54434;50.096;20.082;2022-10-26T00:41:10;99220.20;;;9.14
67822;BMP180;54434;50.096;20.082;2022-10-26T00:43:47;99218.00;;;9.10
67822;BMP180;54434;50.096;20.082;2022-10-26T00:46:27;99216.00;;;9.10
67822;BMP180;54434;50.096;20.082;2022-10-26T00:49:11;99210.60;;;9.00
67822;BMP180;54434;50.096;20.082;2022-10-26T00:51:53;99214.40;;;9.00
67822;BMP180;54434;50.096;20.082;2022-10-26T00:54:29;99223.80;;;8.90
67822;BMP180;54434;50.096;20.082;2022-10-26T00:57:05;99221.80;;;8.90
67822;BMP180;54434;50.096;20.082;2022-10-26T00:59:41;99221.80;;;8.88
67822;BMP180;54434;50.096;20.082;2022-10-26T01:02:18;99216.60;;;8.80
67822;BMP180;54434;50.096;20.082;2022-10-26T01:04:54;99215.00;;;8.80
67822;BMP180;54434;50.096;20.082;2022-10-26T01:07:31;99221.60;;;8.80
67822;BMP180;54434;50.096;20.082;2022-10-26T01:10:10;99221.20;;;8.80
67822;BMP180;54434;50.096;20.082;2022-10-26T01:12:48;99224.00;;;8.80
67822;BMP180;54434;50.096;20.082;2022-10-26T01:15:34;99222.00;;;8.74
67822;BMP180;54434;50.096;20.082;2022-10-26T01:18:21;99223.20;;;8.80
67822;BMP180;54434;50.096;20.082;2022-10-26T01:21:44;99225.20;;;8.80
67822;BMP180;54434;50.096;20.082;2022-10-26T01:24:55;99227.80;;;8.80
67822;BMP180;54434;50.096;20.082;2022-10-26T01:27:36;99227.80;;;8.80
67822;BMP180;54434;50.096;20.082;2022-10-26T01:30:28;99228.20;;;8.84
67822;BMP180;54434;50.096;20.082;2022-10-26T01:33:34;99224.60;;;8.90
67822;BMP180;54434;50.096;20.082;2022-10-26T01:36:21;99221.20;;;8.90
67822;BMP180;54434;50.096;20.082;2022-10-26T01:39:07;99219.60;;;8.90
67822;BMP180;54434;50.096;20.082;2022-10-26T01:41:50;99218.20;;;8.90
67822;BMP180;54434;50.096;20.082;2022-10-26T01:44:32;99221.20;;;8.90
67822;BMP180;54434;50.096;20.082;2022-10-26T01:47:13;99220.00;;;8.94
67822;BMP180;54434;50.096;20.082;2022-10-26T01:49:57;99221.40;;;9.00
67822;BMP180;54434;50.096;20.082;2022-10-26T01:52:33;99223.40;;;9.00
67822;BMP180;54434;50.096;20.082;2022-10-26T01:55:46;99224.20;;;9.00
67822;BMP180;54434;50.096;20.082;2022-10-26T01:58:54;99219.60;;;9.00
67822;BMP180;54434;50.096;20.082;2022-10-26T02:01:55;99221.20;;;9.00
67822;BMP180;54434;50.096;20.082;2022-10-26T02:04:55;99216.40;;;9.00
67822;BMP180;54434;50.096;20.082;2022-10-26T02:07:43;99213.20;;;9.00
67822;BMP180;54434;50.096;20.082;2022-10-26T02:10:40;99214.80;;;9.00
67822;BMP180;54434;50.096;20.082;2022-10-26T02:13:27;99213.80;;;9.00
67822;BMP180;54434;50.096;20.082;2022-10-26T02:16:18;99210.40;;;9.00
67822;BMP180;54434;50.096;20.082;2022-10-26T02:19:04;99206.40;;;9.00
67822;BMP180;54434;50.096;20.082;2022-10-26T02:21:51;99209.40;;;9.00
67822;BMP180;54434;50.096;20.082;2022-10-26T02:24:29;99213.40;;;9.00
67822;BMP180;54434;50.096;20.082;2022-10-26T02:27:10;99213.40;;;9.00
67822;BMP180;54434;50.096;20.082;2022-10-26T02:29:49;99212.40;;;8.90
67822;BMP180;54434;50.096;20.082;2022-10-26T02:32:33;99217.60;;;8.90
67822;BMP180;54434;50.096;20.082;2022-10-26T02:35:11;99209.80;;;8.80
67822;BMP180;54434;50.096;20.082;2022-10-26T02:37:51;99213.00;;;8.80
67822;BMP180;54434;50.096;20.082;2022-10-26T02:40:31;99210.40;;;8.70
67822;BMP180;54434;50.096;20.082;2022-10-26T02:43:13;99213.20;;;8.70
67822;BMP180;54434;50.096;20.082;2022-10-26T02:45:53;99217.20;;;8.60
67822;BMP180;54434;50.096;20.082;2022-10-26T02:48:31;99219.00;;;8.60
67822;BMP180;54434;50.096;20.082;2022-10-26T02:51:13;99217.60;;;8.50
67822;BMP180;54434;50.096;20.082;2022-10-26T02:54:00;99219.20;;;8.50
67822;BMP180;54434;50.096;20.082;2022-10-26T02:56:50;99221.00;;;8.42
67822;BMP180;54434;50.096;20.082;2022-10-26T02:59:33;99225.40;;;8.40
67822;BMP180;54434;50.096;20.082;2022-10-26T03:02:11;99221.80;;;8.40
67822;BMP180;54434;50.096;20.082;2022-10-26T03:04:51;99222.20;;;8.30
67822;BMP180;54434;50.096;20.082;2022-10-26T03:07:28;99224.60;;;8.30
67822;BMP180;54434;50.096;20.082;2022-10-26T03:10:05;99225.20;;;8.30
67822;BMP180;54434;50.096;20.082;2022-10-26T03:12:41;99228.00;;;8.30
67822;BMP180;54434;50.096;20.082;2022-10-26T03:15:17;99228.80;;;8.30
67822;BMP180;54434;50.096;20.082;2022-10-26T03:17:53;99231.80;;;8.30
67822;BMP180;54434;50.096;20.082;2022-10-26T03:20:28;99233.80;;;8.30
67822;BMP180;54434;50.096;20.082;2022-10-26T03:23:04;99234.20;;;8.28
67822;BMP180;54434;50.096;20.082;2022-10-26T03:25:40;99234.00;;;8.20
67822;BMP180;54434;50.096;20.082;2022-10-26T03:28:16;99231.20;;;8.20
67822;BMP180;54434;50.096;20.082;2022-10-26T03:30:52;99233.20;;;8.20
67822;BMP180;54434;50.096;20.082;2022-10-26T03:33:27;99235.20;;;8.20
67822;BMP180;54434;50.096;20.082;2022-10-26T03:36:04;99240.80;;;8.20
67822;BMP180;54434;50.096;20.082;2022-10-26T03:38:39;99242.20;;;8.20
67822;BMP180;54434;50.096;20.082;2022-10-26T03:41:15;99247.60;;;8.12
67822;BMP180;54434;50.096;20.082;2022-10-26T03:43:51;99246.60;;;8.12
67822;BMP180;54434;50.096;20.082;2022-10-26T03:46:27;99249.80;;;8.10
67822;BMP180;54434;50.096;20.082;2022-10-26T03:49:02;99253.80;;;8.10
67822;BMP180;54434;50.096;20.082;2022-10-26T03:51:38;99253.00;;;8.10
67822;BMP180;54434;50.096;20.082;2022-10-26T03:54:14;99252.80;;;8.10
67822;BMP180;54434;50.096;20.082;2022-10-26T03:56:50;99252.00;;;8.08
67822;BMP180;54434;50.096;20.082;2022-10-26T03:59:29;99249.40;;;8.00
67822;BMP180;54434;50.096;20.082;2022-10-26T04:02:04;99249.40;;;8.00
67822;BMP180;54434;50.096;20.082;2022-10-26T04:04:40;99244.60;;;8.00
67822;BMP180;54434;50.096;20.082;2022-10-26T04:07:16;99244.80;;;8.00
67822;BMP180;54434;50.096;20.082;2022-10-26T04:09:52;99251.00;;;8.00
67822;BMP180;54434;50.096;20.082;2022-10-26T04:12:28;99249.00;;;8.00
67822;BMP180;54434;50.096;20.082;2022-10-26T04:15:05;99245.20;;;8.00
67822;BMP180;54434;50.096;20.082;2022-10-26T04:17:41;99244.40;;;8.00
67822;BMP180;54434;50.096;20.082;2022-10-26T04:20:17;99243.00;;;8.00
67822;BMP180;54434;50.096;20.082;2022-10-26T04:23:01;99243.80;;;7.92
67822;BMP180;54434;50.096;20.082;2022-10-26T04:25:38;99239.20;;;7.90
67822;BMP180;54434;50.096;20.082;2022-10-26T04:28:15;99245.40;;;7.86
67822;BMP180;54434;50.096;20.082;2022-10-26T04:30:51;99242.80;;;7.80
67822;BMP180;54434;50.096;20.082;2022-10-26T04:33:27;99247.20;;;7.80
67822;BMP180;54434;50.096;20.082;2022-10-26T04:36:04;99247.40;;;7.70
67822;BMP180;54434;50.096;20.082;2022-10-26T04:38:39;99243.60;;;7.70
67822;BMP180;54434;50.096;20.082;2022-10-26T04:41:15;99244.00;;;7.68
67822;BMP180;54434;50.096;20.082;2022-10-26T04:43:51;99247.00;;;7.60
67822;BMP180;54434;50.096;20.082;2022-10-26T04:46:27;99244.60;;;7.60
67822;BMP180;54434;50.096;20.082;2022-10-26T04:49:03;99251.20;;;7.50
67822;BMP180;54434;50.096;20.082;2022-10-26T04:51:39;99244.40;;;7.50
67822;BMP180;54434;50.096;20.082;2022-10-26T04:54:15;99243.20;;;7.50
67822;BMP180;54434;50.096;20.082;2022-10-26T04:56:51;99244.40;;;7.42
67822;BMP180;54434;50.096;20.082;2022-10-26T04:59:27;99249.00;;;7.40
67822;BMP180;54434;50.096;20.082;2022-10-26T05:02:02;99247.80;;;7.40
67822;BMP180;54434;50.096;20.082;2022-10-26T05:04:38;99254.20;;;7.40
67822;BMP180;54434;50.096;20.082;2022-10-26T05:07:14;99255.20;;;7.40
67822;BMP180;54434;50.096;20.082;2022-10-26T05:09:50;99257.00;;;7.42
67822;BMP180;54434;50.096;20.082;2022-10-26T05:12:26;99254.40;;;7.50
67822;BMP180;54434;50.096;20.082;2022-10-26T05:15:02;99256.40;;;7.50
67822;BMP180;54434;50.096;20.082;2022-10-26T05:17:42;99262.80;;;7.50
67822;BMP180;54434;50.096;20.082;2022-10-26T05:20:18;99267.00;;;7.60
67822;BMP180;54434;50.096;20.082;2022-10-26T05:22:57;99270.40;;;7.60
67822;BMP180;54434;50.096;20.082;2022-10-26T05:25:37;99271.60;;;7.60
67822;BMP180;54434;50.096;20.082;2022-10-26T05:28:16;99274.60;;;7.62
67822;BMP180;54434;50.096;20.082;2022-10-26T05:30:52;99278.80;;;7.70
67822;BMP180;54434;50.096;20.082;2022-10-26T05:33:28;99276.40;;;7.72
67822;BMP180;54434;50.096;20.082;2022-10-26T05:36:05;99283.80;;;7.80
67822;BMP180;54434;50.096;20.082;2022-10-26T05:38:41;99281.40;;;7.90
67822;BMP180;54434;50.096;20.082;2022-10-26T05:41:18;99281.60;;;7.92
67822;BMP180;54434;50.096;20.082;2022-10-26T05:43:54;99285.20;;;8.00
67822;BMP180;54434;50.096;20.082;2022-10-26T05:46:30;99289.80;;;8.00
67822;BMP180;54434;50.096;20.082;2022-10-26T05:49:05;99290.60;;;8.10
67822;BMP180;54434;50.096;20.082;2022-10-26T05:51:42;99285.60;;;8.12
67822;BMP180;54434;50.096;20.082;2022-10-26T05:54:17;99289.80;;;8.20
67822;BMP180;54434;50.096;20.082;2022-10-26T05:56:55;99291.80;;;8.20
67822;BMP180;54434;50.096;20.082;2022-10-26T05:59:33;99295.40;;;8.20
67822;BMP180;54434;50.096;20.082;2022-10-26T06:02:29;99303.20;;;8.24
67822;BMP180;54434;50.096;20.082;2022-10-26T06:05:13;99302.20;;;8.30
67822;BMP180;54434;50.096;20.082;2022-10-26T06:07:51;99305.20;;;8.40
67822;BMP180;54434;50.096;20.082;2022-10-26T06:10:30;99311.20;;;8.44
67822;BMP180;54434;50.096;20.082;2022-10-26T06:13:08;99316.60;;;8.50
67822;BMP180;54434;50.096;20.082;2022-10-26T06:16:05;99314.40;;;8.60
67822;BMP180;54434;50.096;20.082;2022-10-26T06:19:05;99316.40;;;8.70
67822;BMP180;54434;50.096;20.082;2022-10-26T06:22:09;99318.60;;;8.76
67822;BMP180;54434;50.096;20.082;2022-10-26T06:24:59;99320.20;;;8.90
67822;BMP180;54434;50.096;20.082;2022-10-26T06:27:45;99323.00;;;8.92
67822;BMP180;54434;50.096;20.082;2022-10-26T06:30:23;99325.60;;;9.06
67822;BMP180;54434;50.096;20.082;2022-10-26T06:32:59;99325.80;;;9.20
67822;BMP180;54434;50.096;20.082;2022-10-26T06:36:05;99327.80;;;9.30
67822;BMP180;54434;50.096;20.082;2022-10-26T06:38:47;99331.20;;;9.44
67822;BMP180;54434;50.096;20.082;2022-10-26T06:41:25;99330.60;;;9.60
67822;BMP180;54434;50.096;20.082;2022-10-26T06:44:03;99337.20;;;9.80
67822;BMP180;54434;50.096;20.082;2022-10-26T06:46:49;99335.00;;;9.98
67822;BMP180;54434;50.096;20.082;2022-10-26T06:49:35;99340.40;;;10.20
67822;BMP180;54434;50.096;20.082;2022-10-26T06:52:17;99342.00;;;10.40
67822;BMP180;54434;50.096;20.082;2022-10-26T06:54:58;99337.00;;;10.60
67822;BMP180;54434;50.096;20.082;2022-10-26T06:57:37;99342.20;;;10.80
67822;BMP180;54434;50.096;20.082;2022-10-26T07:00:23;99346.40;;;11.00
67822;BMP180;54434;50.096;20.082;2022-10-26T07:02:59;99350.80;;;11.20
67822;BMP180;54434;50.096;20.082;2022-10-26T07:05:35;99351.80;;;11.50
67822;BMP180;54434;50.096;20.082;2022-10-26T07:08:11;99348.60;;;11.80
67822;BMP180;54434;50.096;20.082;2022-10-26T07:10:48;99349.20;;;12.10
67822;BMP180;54434;50.096;20.082;2022-10-26T07:13:24;99350.00;;;12.40
67822;BMP180;54434;50.096;20.082;2022-10-26T07:15:59;99357.80;;;12.70
67822;BMP180;54434;50.096;20.082;2022-10-26T07:18:35;99361.80;;;13.06
67822;BMP180;54434;50.096;20.082;2022-10-26T07:21:11;99363.40;;;13.40
67822;BMP180;54434;50.096;20.082;2022-10-26T07:23:47;99365.00;;;13.60
67822;BMP180;54434;50.096;20.082;2022-10-26T07:26:23;99364.20;;;13.90
67822;BMP180;54434;50.096;20.082;2022-10-26T07:29:01;99367.20;;;14.24
67822;BMP180;54434;50.096;20.082;2022-10-26T07:31:37;99363.20;;;14.60
67822;BMP180;54434;50.096;20.082;2022-10-26T07:34:13;99365.20;;;14.92
67822;BMP180;54434;50.096;20.082;2022-10-26T07:36:49;99375.80;;;15.24
67822;BMP180;54434;50.096;20.082;2022-10-26T07:39:26;99374.00;;;15.52
67822;BMP180;54434;50.096;20.082;2022-10-26T07:42:06;99382.00;;;15.80
67822;BMP180;54434;50.096;20.082;2022-10-26T07:44:43;99382.80;;;16.08
67822;BMP180;54434;50.096;20.082;2022-10-26T07:47:18;99380.60;;;16.30
67822;BMP180;54434;50.096;20.082;2022-10-26T07:49:54;99382.40;;;16.50
67822;BMP180;54434;50.096;20.082;2022-10-26T07:52:30;99383.60;;;16.72
67822;BMP180;54434;50.096;20.082;2022-10-26T07:55:08;99383.40;;;16.90
67822;BMP180;54434;50.096;20.082;2022-10-26T07:57:44;99380.60;;;17.10
67822;BMP180;54434;50.096;20.082;2022-10-26T08:00:28;99383.60;;;17.20
67822;BMP180;54434;50.096;20.082;2022-10-26T08:03:04;99377.00;;;17.32
67822;BMP180;54434;50.096;20.082;2022-10-26T08:05:40;99382.80;;;17.50
67822;BMP180;54434;50.096;20.082;2022-10-26T08:08:16;99382.40;;;17.60
67822;BMP180;54434;50.096;20.082;2022-10-26T08:10:52;99380.80;;;17.70
67822;BMP180;54434;50.096;20.082;2022-10-26T08:13:28;99376.20;;;17.80
67822;BMP180;54434;50.096;20.082;2022-10-26T08:16:07;99376.80;;;17.90
67822;BMP180;54434;50.096;20.082;2022-10-26T08:18:43;99380.40;;;18.00
67822;BMP180;54434;50.096;20.082;2022-10-26T08:21:19;99380.40;;;18.10
67822;BMP180;54434;50.096;20.082;2022-10-26T08:24:10;99378.20;;;18.10
67822;BMP180;54434;50.096;20.082;2022-10-26T08:26:47;99378.40;;;18.20
67822;BMP180;54434;50.096;20.082;2022-10-26T08:29:23;99374.60;;;18.30
67822;BMP180;54434;50.096;20.082;2022-10-26T08:31:59;99377.60;;;18.30
67822;BMP180;54434;50.096;20.082;2022-10-26T08:34:35;99379.60;;;18.30
67822;BMP180;54434;50.096;20.082;2022-10-26T08:37:11;99376.20;;;18.30
67822;BMP180;54434;50.096;20.082;2022-10-26T08:39:47;99378.00;;;18.28
67822;BMP180;54434;50.096;20.082;2022-10-26T08:42:36;99377.00;;;18.20
67822;BMP180;54434;50.096;20.082;2022-10-26T08:45:25;99375.00;;;18.20
67822;BMP180;54434;50.096;20.082;2022-10-26T08:48:16;99379.60;;;18.20
67822;BMP180;54434;50.096;20.082;2022-10-26T08:50:55;99375.40;;;18.10
67822;BMP180;54434;50.096;20.082;2022-10-26T08:53:42;99376.80;;;18.18
67822;BMP180;54434;50.096;20.082;2022-10-26T08:56:26;99380.20;;;18.20
67822;BMP180;54434;50.096;20.082;2022-10-26T08:59:13;99377.40;;;18.20
67822;BMP180;54434;50.096;20.082;2022-10-26T09:01:50;99381.40;;;18.20
67822;BMP180;54434;50.096;20.082;2022-10-26T09:04:31;99380.20;;;18.34
67822;BMP180;54434;50.096;20.082;2022-10-26T09:07:24;99380.80;;;18.40
67822;BMP180;54434;50.096;20.082;2022-10-26T09:10:19;99384.40;;;18.40
67822;BMP180;54434;50.096;20.082;2022-10-26T09:13:11;99382.60;;;18.40
67822;BMP180;54434;50.096;20.082;2022-10-26T09:16:05;99382.20;;;18.30
67822;BMP180;54434;50.096;20.082;2022-10-26T09:19:00;99387.00;;;18.32
67822;BMP180;54434;50.096;20.082;2022-10-26T09:21:49;99384.00;;;18.30
67822;BMP180;54434;50.096;20.082;2022-10-26T09:24:35;99384.00;;;18.20
67822;BMP180;54434;50.096;20.082;2022-10-26T09:27:22;99382.20;;;18.10
67822;BMP180;54434;50.096;20.082;2022-10-26T09:30:12;99383.60;;;18.10
67822;BMP180;54434;50.096;20.082;2022-10-26T09:32:53;99383.00;;;18.10
67822;BMP180;54434;50.096;20.082;2022-10-26T09:35:32;99383.60;;;18.10
67822;BMP180;54434;50.096;20.082;2022-10-26T09:38:21;99387.80;;;18.16
67822;BMP180;54434;50.096;20.082;2022-10-26T09:41:08;99389.80;;;18.10
67822;BMP180;54434;50.096;20.082;2022-10-26T09:43:51;99391.20;;;18.12
67822;BMP180;54434;50.096;20.082;2022-10-26T09:46:45;99391.00;;;18.16
67822;BMP180;54434;50.096;20.082;2022-10-26T09:49:34;99390.20;;;18.10
67822;BMP180;54434;50.096;20.082;2022-10-26T09:52:14;99392.80;;;18.12
67822;BMP180;54434;50.096;20.082;2022-10-26T09:54:50;99388.00;;;18.10
67822;BMP180;54434;50.096;20.082;2022-10-26T09:57:26;99386.20;;;18.10
67822;BMP180;54434;50.096;20.082;2022-10-26T10:00:03;99385.80;;;18.10
67822;BMP180;54434;50.096;20.082;2022-10-26T10:02:41;99385.00;;;18.10
67822;BMP180;54434;50.096;20.082;2022-10-26T10:05:33;99383.00;;;18.10
67822;BMP180;54434;50.096;20.082;2022-10-26T10:08:27;99386.40;;;18.10
67822;BMP180;54434;50.096;20.082;2022-10-26T10:11:08;99388.00;;;18.00
67822;BMP180;54434;50.096;20.082;2022-10-26T10:13:46;99388.40;;;18.00
67822;BMP180;54434;50.096;20.082;2022-10-26T10:16:25;99388.80;;;17.96
67822;BMP180;54434;50.096;20.082;2022-10-26T10:19:02;99384.60;;;17.98
67822;BMP180;54434;50.096;20.082;2022-10-26T10:21:46;99387.60;;;18.00
67822;BMP180;54434;50.096;20.082;2022-10-26T10:24:33;99385.60;;;18.00
67822;BMP180;54434;50.096;20.082;2022-10-26T10:27:20;99387.00;;;18.00
67822;BMP180;54434;50.096;20.082;2022-10-26T10:29:58;99387.60;;;18.00
67822;BMP180;54434;50.096;20.082;2022-10-26T10:33:04;99384.20;;;18.00
67822;BMP180;54434;50.096;20.082;2022-10-26T10:35:48;99390.80;;;18.00
67822;BMP180;54434;50.096;20.082;2022-10-26T10:38:25;99385.80;;;18.00
67822;BMP180;54434;50.096;20.082;2022-10-26T10:41:02;99386.20;;;18.00
67822;BMP180;54434;50.096;20.082;2022-10-26T10:43:46;99384.60;;;18.00
67822;BMP180;54434;50.096;20.082;2022-10-26T10:46:28;99379.00;;;18.00
67822;BMP180;54434;50.096;20.082;2022-10-26T10:49:26;99380.60;;;18.02
67822;BMP180;54434;50.096;20.082;2022-10-26T10:52:03;99379.40;;;18.10
67822;BMP180;54434;50.096;20.082;2022-10-26T10:54:40;99376.40;;;18.10
67822;BMP180;54434;50.096;20.082;2022-10-26T10:57:26;99382.20;;;18.10
67822;BMP180;54434;50.096;20.082;2022-10-26T11:00:10;99383.40;;;18.10
67822;BMP180;54434;50.096;20.082;2022-10-26T11:03:35;99379.40;;;18.10
67822;BMP180;54434;50.096;20.082;2022-10-26T11:06:20;99376.80;;;18.10
67822;BMP180;54434;50.096;20.082;2022-10-26T11:09:02;99377.20;;;18.02
67822;BMP180;54434;50.096;20.082;2022-10-26T11:11:44;99375.40;;;18.08
67822;BMP180;54434;50.096;20.082;2022-10-26T11:14:27;99377.00;;;18.10
67822;BMP180;54434;50.096;20.082;2022-10-26T11:17:13;99379.40;;;18.00
67822;BMP180;54434;50.096;20.082;2022-10-26T11:19:57;99380.20;;;18.00
67822;BMP180;54434;50.096;20.082;2022-10-26T11:22:41;99372.40;;;17.90
67822;BMP180;54434;50.096;20.082;2022-10-26T11:25:26;99373.80;;;17.90
67822;BMP180;54434;50.096;20.082;2022-10-26T11:28:13;99372.00;;;17.90
67822;BMP180;54434;50.096;20.082;2022-10-26T11:30:57;99368.00;;;17.90
67822;BMP180;54434;50.096;20.082;2022-10-26T11:33:42;99374.60;;;17.98
67822;BMP180;54434;50.096;20.082;2022-10-26T11:36:25;99376.80;;;18.00
67822;BMP180;54434;50.096;20.082;2022-10-26T11:39:15;99377.60;;;18.00
67822;BMP180;54434;50.096;20.082;2022-10-26T11:42:02;99377.80;;;18.00
67822;BMP180;54434;50.096;20.082;2022-10-26T11:44:50;99375.20;;;18.00
67822;BMP180;54434;50.096;20.082;2022-10-26T11:47:38;99377.00;;;18.00
67822;BMP180;54434;50.096;20.082;2022-10-26T11:50:21;99377.60;;;18.00
67822;BMP180;54434;50.096;20.082;2022-10-26T11:53:01;99371.20;;;17.92
67822;BMP180;54434;50.096;20.082;2022-10-26T11:55:41;99370.20;;;17.90
67822;BMP180;54434;50.096;20.082;2022-10-26T11:58:23;99369.80;;;17.80
67822;BMP180;54434;50.096;20.082;2022-10-26T12:01:08;99369.40;;;17.70
67822;BMP180;54434;50.096;20.082;2022-10-26T12:03:49;99369.80;;;17.70
67822;BMP180;54434;50.096;20.082;2022-10-26T12:06:32;99374.80;;;17.70
67822;BMP180;54434;50.096;20.082;2022-10-26T12:09:14;99378.00;;;17.70
67822;BMP180;54434;50.096;20.082;2022-10-26T12:12:00;99380.80;;;17.70
67822;BMP180;54434;50.096;20.082;2022-10-26T12:14:43;99383.00;;;17.70
67822;BMP180;54434;50.096;20.082;2022-10-26T12:17:28;99385.20;;;17.70
67822;BMP180;54434;50.096;20.082;2022-10-26T12:20:34;99384.00;;;17.70
67822;BMP180;54434;50.096;20.082;2022-10-26T12:23:14;99378.20;;;17.70
67822;BMP180;54434;50.096;20.082;2022-10-26T12:26:51;99379.40;;;17.60
67822;BMP180;54434;50.096;20.082;2022-10-26T12:29:48;99381.20;;;17.60
67822;BMP180;54434;50.096;20.082;2022-10-26T12:32:59;99378.40;;;17.60
67822;BMP180;54434;50.096;20.082;2022-10-26T12:35:45;99378.00;;;17.70
67822;BMP180;54434;50.096;20.082;2022-10-26T12:38:59;99376.60;;;17.70
67822;BMP180;54434;50.096;20.082;2022-10-26T12:41:39;99373.80;;;17.70
67822;BMP180;54434;50.096;20.082;2022-10-26T12:44:59;99372.20;;;17.80
67822;BMP180;54434;50.096;20.082;2022-10-26T12:48:19;99367.40;;;17.80
67822;BMP180;54434;50.096;20.082;2022-10-26T12:51:45;99372.20;;;17.82
67822;BMP180;54434;50.096;20.082;2022-10-26T12:54:38;99369.20;;;17.86
67822;BMP180;54434;50.096;20.082;2022-10-26T12:57:27;99369.00;;;17.88
67822;BMP180;54434;50.096;20.082;2022-10-26T13:00:13;99365.00;;;17.88
67822;BMP180;54434;50.096;20.082;2022-10-26T13:03:11;99367.40;;;17.86
67822;BMP180;54434;50.096;20.082;2022-10-26T13:06:25;99369.40;;;17.80
67822;BMP180;54434;50.096;20.082;2022-10-26T13:09:19;99368.40;;;17.80
67822;BMP180;54434;50.096;20.082;2022-10-26T13:11:59;99370.20;;;17.70
67822;BMP180;54434;50.096;20.082;2022-10-26T13:14:47;99368.00;;;17.66
67822;BMP180;54434;50.096;20.082;2022-10-26T13:17:30;99366.40;;;17.52
67822;BMP180;54434;50.096;20.082;2022-10-26T13:20:18;99367.80;;;17.50
67822;BMP180;54434;50.096;20.082;2022-10-26T13:22:54;99365.20;;;17.40
67822;BMP180;54434;50.096;20.082;2022-10-26T13:25:32;99368.00;;;17.30
67822;BMP180;54434;50.096;20.082;2022-10-26T13:28:41;99369.00;;;17.20
67822;BMP180;54434;50.096;20.082;2022-10-26T13:31:53;99365.00;;;17.10
67822;BMP180;54434;50.096;20.082;2022-10-26T13:34:33;99369.20;;;17.10
67822;BMP180;54434;50.096;20.082;2022-10-26T13:37:20;99371.00;;;17.00
67822;BMP180;54434;50.096;20.082;2022-10-26T13:39:59;99370.80;;;16.92
67822;BMP180;54434;50.096;20.082;2022-10-26T13:42:45;99373.20;;;16.90
67822;BMP180;54434;50.096;20.082;2022-10-26T13:45:27;99377.60;;;16.82
67822;BMP180;54434;50.096;20.082;2022-10-26T13:48:09;99379.40;;;16.80
67822;BMP180;54434;50.096;20.082;2022-10-26T13:50:52;99378.20;;;16.80
67822;BMP180;54434;50.096;20.082;2022-10-26T13:53:38;99376.20;;;16.82
67822;BMP180;54434;50.096;20.082;2022-10-26T13:56:31;99375.80;;;16.80
67822;BMP180;54434;50.096;20.082;2022-10-26T13:59:13;99376.40;;;16.80
67822;BMP180;54434;50.096;20.082;2022-10-26T14:02:15;99380.00;;;16.80
67822;BMP180;54434;50.096;20.082;2022-10-26T14:04:59;99382.20;;;16.80
67822;BMP180;54434;50.096;20.082;2022-10-26T14:07:42;99373.60;;;16.80
67822;BMP180;54434;50.096;20.082;2022-10-26T14:10:36;99376.60;;;16.80
67822;BMP180;54434;50.096;20.082;2022-10-26T14:13:16;99375.00;;;16.80
67822;BMP180;54434;50.096;20.082;2022-10-26T14:16:05;99376.80;;;16.70
67822;BMP180;54434;50.096;20.082;2022-10-26T14:18:45;99376.80;;;16.70
67822;BMP180;54434;50.096;20.082;2022-10-26T14:21:23;99377.00;;;16.60
67822;BMP180;54434;50.096;20.082;2022-10-26T14:24:01;99378.00;;;16.60
67822;BMP180;54434;50.096;20.082;2022-10-26T14:26:45;99377.80;;;16.60
67822;BMP180;54434;50.096;20.082;2022-10-26T14:29:25;99378.40;;;16.50
67822;BMP180;54434;50.096;20.082;2022-10-26T14:32:01;99380.20;;;16.50
67822;BMP180;54434;50.096;20.082;2022-10-26T14:34:54;99380.80;;;16.40
67822;BMP180;54434;50.096;20.082;2022-10-26T14:37:43;99377.80;;;16.40
67822;BMP180;54434;50.096;20.082;2022-10-26T14:40:24;99384.60;;;16.30
67822;BMP180;54434;50.096;20.082;2022-10-26T14:43:05;99384.80;;;16.30
67822;BMP180;54434;50.096;20.082;2022-10-26T14:45:47;99389.80;;;16.20
67822;BMP180;54434;50.096;20.082;2022-10-26T14:48:30;99388.80;;;16.20
67822;BMP180;54434;50.096;20.082;2022-10-26T14:51:16;99390.40;;;16.10
67822;BMP180;54434;50.096;20.082;2022-10-26T14:53:55;99391.00;;;16.10
67822;BMP180;54434;50.096;20.082;2022-10-26T14:56:40;99392.60;;;16.00
67822;BMP180;54434;50.096;20.082;2022-10-26T14:59:26;99395.40;;;16.00
67822;BMP180;54434;50.096;20.082;2022-10-26T15:02:14;99397.40;;;15.90
67822;BMP180;54434;50.096;20.082;2022-10-26T15:05:15;99400.20;;;15.80
67822;BMP180;54434;50.096;20.082;2022-10-26T15:07:52;99399.80;;;15.70
67822;BMP180;54434;50.096;20.082;2022-10-26T15:10:50;99406.40;;;15.64
67822;BMP180;54434;50.096;20.082;2022-10-26T15:13:31;99403.00;;;15.60
67822;BMP180;54434;50.096;20.082;2022-10-26T15:16:16;99404.20;;;15.48
67822;BMP180;54434;50.096;20.082;2022-10-26T15:18:57;99409.80;;;15.30
67822;BMP180;54434;50.096;20.082;2022-10-26T15:21:38;99409.40;;;15.20
67822;BMP180;54434;50.096;20.082;2022-10-26T15:24:31;99415.40;;;15.10
67822;BMP180;54434;50.096;20.082;2022-10-26T15:27:18;99421.40;;;14.90
67822;BMP180;54434;50.096;20.082;2022-10-26T15:30:18;99423.80;;;14.76
67822;BMP180;54434;50.096;20.082;2022-10-26T15:32:55;99424.60;;;14.60